Time;durP1;ratioP1;P1;durP2;ratioP2;P2;SDS_P1;SDS_P2;PMS_P1;PMS_P2;Temp;Humidity;BMP_temperature;BMP_pressure;BME280_temperature;BME280_humidity;BME280_pressure;Samples;Min_cycle;Max_cycle;Signal;HPM_P1;HPM_P2
2024/01/10 00:00:52;;;;;;;10.20;4.43;;;-4.90;97.60;;;;;;5083154;28;20035;-73
2024/01/10 00:03:17;;;;;;;11.52;4.40;;;-4.90;97.60;;;;;;5079152;28;20028;-74
2024/01/10 00:05:43;;;;;;;13.95;4.50;;;-4.90;97.60;;;;;;5087285;28;20038;-74
2024/01/10 00:08:09;;;;;;;13.93;4.75;;;-5.00;97.70;;;;;;5086331;28;20024;-74
2024/01/10 00:10:34;;;;;;;12.85;4.53;;;-5.00;97.80;;;;;;5086782;28;20509;-73
2024/01/10 00:13:02;;;;;;;14.10;5.53;;;-5.10;97.90;;;;;;5087362;28;20067;-73
2024/01/10 00:15:28;;;;;;;12.93;5.28;;;-5.10;98.30;;;;;;5086241;28;20103;-73
2024/01/10 00:17:53;;;;;;;13.65;5.60;;;-5.20;98.10;;;;;;5085597;28;20111;-73
2024/01/10 00:20:19;;;;;;;16.95;6.00;;;-5.10;98.10;;;;;;5087311;28;20040;-73
2024/01/10 00:22:44;;;;;;;16.10;5.82;;;-5.10;98.10;;;;;;5086115;28;20092;-73
2024/01/10 00:25:10;;;;;;;13.93;4.93;;;-5.10;98.30;;;;;;5089627;28;20038;-73
2024/01/10 00:27:35;;;;;;;15.02;5.90;;;-5.20;98.30;;;;;;5084204;28;20383;-73
2024/01/10 00:30:01;;;;;;;14.70;5.55;;;-5.20;98.50;;;;;;5080897;28;20032;-73
2024/01/10 00:32:27;;;;;;;20.10;5.72;;;-5.20;98.50;;;;;;5080782;28;20038;-73
2024/01/10 00:34:52;;;;;;;14.13;5.68;;;-5.10;98.50;;;;;;5078828;28;20096;-73
2024/01/10 00:37:18;;;;;;;15.35;5.95;;;-5.10;98.40;;;;;;5079735;28;20024;-73
2024/01/10 00:39:43;;;;;;;19.65;5.95;;;-5.00;98.50;;;;;;5080566;28;20066;-73
2024/01/10 00:42:09;;;;;;;14.25;5.25;;;-5.00;98.10;;;;;;5081759;28;20085;-73
2024/01/10 00:44:35;;;;;;;14.02;5.45;;;-4.90;98.00;;;;;;5083723;28;20405;-73
2024/01/10 00:47:01;;;;;;;17.75;5.68;;;-4.90;97.90;;;;;;5097356;23;20052;-73
2024/01/10 00:49:26;;;;;;;13.00;5.80;;;-5.00;98.20;;;;;;5085159;28;20042;-73
2024/01/10 00:51:52;;;;;;;15.63;5.32;;;-5.00;98.00;;;;;;5085298;28;20372;-73
2024/01/10 00:54:17;;;;;;;13.98;5.53;;;-5.00;98.00;;;;;;5087650;28;20030;-72
2024/01/10 00:56:45;;;;;;;13.02;5.38;;;-5.00;98.20;;;;;;5087765;28;20024;-73
2024/01/10 00:59:11;;;;;;;15.27;5.43;;;-5.00;98.20;;;;;;5086763;28;20032;-73
2024/01/10 01:01:39;;;;;;;16.95;6.50;;;-5.10;98.20;;;;;;5086323;28;20462;-73
2024/01/10 01:04:05;;;;;;;15.18;5.30;;;-5.10;98.30;;;;;;5078447;28;20028;-73
2024/01/10 01:06:30;;;;;;;15.18;5.47;;;-5.10;98.50;;;;;;5089766;28;20797;-73
2024/01/10 01:08:58;;;;;;;19.95;6.40;;;-5.10;98.50;;;;;;5083994;28;20040;-73
2024/01/10 01:11:24;;;;;;;18.25;5.10;;;-5.10;98.60;;;;;;5084781;28;20024;-73
2024/01/10 01:13:49;;;;;;;14.27;5.13;;;-5.10;98.60;;;;;;5087551;28;20368;-73
2024/01/10 01:16:15;;;;;;;14.75;6.50;;;-5.10;98.60;;;;;;5090982;28;20051;-73
2024/01/10 01:18:45;;;;;;;22.00;6.78;;;-5.00;98.50;;;;;;5086801;28;20768;-73
2024/01/10 01:21:12;;;;;;;11.52;5.43;;;-5.00;98.40;;;;;;5086658;28;20120;-73
2024/01/10 01:23:38;;;;;;;12.43;5.97;;;-5.00;98.40;;;;;;5086628;28;20095;-73
2024/01/10 01:26:04;;;;;;;18.67;6.72;;;-4.90;98.30;;;;;;5087563;28;20112;-73
2024/01/10 01:28:30;;;;;;;15.60;5.72;;;-4.70;98.20;;;;;;5087847;28;20024;-73
2024/01/10 01:30:57;;;;;;;17.95;6.20;;;-4.80;98.00;;;;;;5086566;28;20035;-73
2024/01/10 01:33:23;;;;;;;16.33;5.68;;;-4.90;98.10;;;;;;5086873;28;20484;-75
2024/01/10 01:35:49;;;;;;;14.05;5.70;;;-4.90;98.30;;;;;;5086798;28;20039;-73
2024/01/10 01:38:14;;;;;;;18.17;5.60;;;-5.00;98.50;;;;;;5088376;28;20127;-73
2024/01/10 01:40:40;;;;;;;14.90;5.25;;;-5.00;98.40;;;;;;5085811;28;20039;-73
2024/01/10 01:43:23;;;;;;;15.45;6.32;;;-5.00;98.40;;;;;;5083366;28;20097;-73
2024/01/10 01:45:52;;;;;;;15.57;6.18;;;-5.00;98.50;;;;;;5083638;28;20063;-73
2024/01/10 01:48:25;;;;;;;14.20;6.10;;;-5.00;98.40;;;;;;5084210;28;20551;-73
2024/01/10 01:51:12;;;;;;;15.77;6.15;;;-5.00;98.40;;;;;;5086669;28;20111;-73
2024/01/10 01:53:39;;;;;;;19.05;6.40;;;-5.10;98.40;;;;;;5083876;28;20540;-73
2024/01/10 01:56:09;;;;;;;15.90;6.32;;;-5.00;98.30;;;;;;5086491;28;20032;-73
2024/01/10 01:58:36;;;;;;;13.45;6.15;;;-5.10;98.40;;;;;;5086669;28;20044;-72
2024/01/10 02:01:03;;;;;;;16.95;5.72;;;-5.10;98.40;;;;;;5082906;28;20494;-74
2024/01/10 02:03:31;;;;;;;14.15;5.40;;;-5.10;98.50;;;;;;5090114;28;20063;-73
2024/01/10 02:06:03;;;;;;;15.38;6.00;;;-5.20;98.40;;;;;;5084179;28;20024;-73
2024/01/10 02:08:29;;;;;;;14.13;5.53;;;-5.20;98.40;;;;;;5090497;28;20031;-72
2024/01/10 02:10:55;;;;;;;17.35;6.60;;;-5.30;98.40;;;;;;5090221;28;20056;-73
2024/01/10 02:13:20;;;;;;;14.88;6.15;;;-5.30;98.40;;;;;;5092118;28;20513;-72
2024/01/10 02:15:50;;;;;;;17.17;6.63;;;-5.30;98.50;;;;;;5089249;28;20027;-72
2024/01/10 02:18:16;;;;;;;12.77;4.78;;;-5.30;98.60;;;;;;5087297;28;20032;-73
2024/01/10 02:20:45;;;;;;;20.98;7.05;;;-5.40;98.90;;;;;;5087409;28;20032;-73
2024/01/10 02:23:11;;;;;;;13.85;6.07;;;-5.40;98.70;;;;;;5082268;28;20469;-73
2024/01/10 02:25:37;;;;;;;18.63;6.88;;;-5.50;98.70;;;;;;5085142;28;20032;-73
2024/01/10 02:28:03;;;;;;;12.68;5.28;;;-5.50;98.80;;;;;;5092515;28;20029;-73
2024/01/10 02:30:29;;;;;;;18.52;7.22;;;-5.50;98.90;;;;;;5094657;28;20088;-73
2024/01/10 02:32:54;;;;;;;20.35;6.68;;;-5.50;99.00;;;;;;5089640;28;20016;-72
2024/01/10 02:35:20;;;;;;;18.08;6.05;;;-5.60;99.10;;;;;;5087375;28;20032;-73
2024/01/10 02:37:46;;;;;;;14.70;5.70;;;-5.60;99.10;;;;;;5092895;28;20035;-72
2024/01/10 02:40:11;;;;;;;19.08;6.93;;;-5.60;99.30;;;;;;5083798;28;20447;-73
2024/01/10 02:42:37;;;;;;;19.83;6.35;;;-5.60;99.30;;;;;;5089109;28;20031;-73
2024/01/10 02:45:06;;;;;;;14.25;6.45;;;-5.60;99.30;;;;;;5088579;28;20024;-72
2024/01/10 02:47:31;;;;;;;18.00;6.80;;;-5.60;99.30;;;;;;5090938;28;20035;-73
2024/01/10 02:49:57;;;;;;;19.67;6.88;;;-5.60;99.50;;;;;;5082352;28;20024;-73
2024/01/10 02:52:25;;;;;;;18.63;6.25;;;-5.60;99.50;;;;;;5088539;28;20082;-73
2024/01/10 02:54:50;;;;;;;16.90;5.95;;;-5.60;99.50;;;;;;5088769;28;20034;-73
2024/01/10 02:57:16;;;;;;;18.90;7.13;;;-5.60;99.40;;;;;;5081338;28;20040;-72
2024/01/10 02:59:41;;;;;;;17.02;6.65;;;-5.60;99.50;;;;;;5089411;28;20066;-73
2024/01/10 03:02:07;;;;;;;19.90;7.00;;;-5.60;99.50;;;;;;5084579;28;20039;-73
2024/01/10 03:04:32;;;;;;;19.60;6.72;;;-5.70;99.70;;;;;;5088169;28;20036;-73
2024/01/10 03:06:58;;;;;;;13.75;5.55;;;-5.60;99.70;;;;;;5088156;28;20035;-73
2024/01/10 03:09:26;;;;;;;16.95;6.88;;;-5.60;99.60;;;;;;5089189;28;20031;-73
2024/01/10 03:11:51;;;;;;;17.48;6.28;;;-5.50;99.50;;;;;;5087602;28;20081;-73
2024/01/10 03:14:17;;;;;;;17.65;7.25;;;-5.50;99.50;;;;;;5088556;28;20024;-73
2024/01/10 03:16:45;;;;;;;17.15;6.97;;;-5.50;99.50;;;;;;5088673;28;20035;-73
2024/01/10 03:19:14;;;;;;;14.98;6.57;;;-5.60;99.60;;;;;;5089482;28;20028;-73
2024/01/10 03:21:39;;;;;;;17.42;6.47;;;-5.50;99.70;;;;;;5086769;28;20066;-73
2024/01/10 03:24:05;;;;;;;24.05;7.50;;;-5.50;99.70;;;;;;5084993;28;20079;-72
2024/01/10 03:26:31;;;;;;;17.25;5.75;;;-5.50;99.60;;;;;;5089169;28;20070;-73
2024/01/10 03:28:57;;;;;;;23.23;7.55;;;-5.50;99.60;;;;;;5087967;28;20464;-72
2024/01/10 03:31:23;;;;;;;22.58;7.65;;;-5.50;99.60;;;;;;5087685;28;20111;-73
2024/01/10 03:33:50;;;;;;;23.10;8.43;;;-5.50;99.50;;;;;;5088762;28;20107;-72
2024/01/10 03:36:17;;;;;;;16.00;6.30;;;-5.40;99.40;;;;;;5090673;28;20028;-73
2024/01/10 03:38:47;;;;;;;30.05;8.48;;;-5.40;99.50;;;;;;5087974;28;20103;-73
2024/01/10 03:41:19;;;;;;;22.20;7.35;;;-5.50;99.60;;;;;;5087442;28;20028;-73
2024/01/10 03:43:45;;;;;;;23.42;9.02;;;-5.40;99.60;;;;;;5088335;28;20024;-73
2024/01/10 03:46:14;;;;;;;25.08;8.85;;;-5.40;99.40;;;;;;5088942;28;20036;-72
2024/01/10 03:48:47;;;;;;;24.90;8.60;;;-5.40;99.30;;;;;;5088165;28;20039;-73
2024/01/10 03:51:14;;;;;;;29.08;10.10;;;-5.40;99.30;;;;;;5087077;28;20027;-73
2024/01/10 03:53:40;;;;;;;26.75;9.65;;;-5.40;99.30;;;;;;5081724;28;20016;-73
2024/01/10 03:56:08;;;;;;;32.03;10.23;;;-5.30;99.30;;;;;;5087423;28;20402;-73
2024/01/10 03:58:34;;;;;;;30.52;10.82;;;-5.30;99.30;;;;;;5083461;28;20478;-73
2024/01/10 04:01:03;;;;;;;33.55;10.15;;;-5.30;99.20;;;;;;5079861;28;20020;-73
2024/01/10 04:03:29;;;;;;;34.17;12.55;;;-5.30;99.30;;;;;;5087803;28;20181;-73
2024/01/10 04:05:54;;;;;;;36.13;12.68;;;-5.30;99.20;;;;;;5085148;28;20729;-73
2024/01/10 04:08:20;;;;;;;31.20;10.85;;;-5.30;99.20;;;;;;5081993;28;20035;-73
2024/01/10 04:10:45;;;;;;;35.35;12.10;;;-5.30;99.20;;;;;;5087365;28;20016;-73
2024/01/10 04:13:11;;;;;;;39.53;13.02;;;-5.20;99.20;;;;;;5083747;28;20115;-73
2024/01/10 04:15:39;;;;;;;32.05;11.77;;;-5.20;99.10;;;;;;5086671;28;20036;-73
2024/01/10 04:18:04;;;;;;;;;;;-5.20;99.10;;;;;;5089810;28;20171;-73
2024/01/10 04:20:30;;;;;;;33.03;10.93;;;-5.20;99.10;;;;;;5090070;28;19926;-73
2024/01/10 04:22:55;;;;;;;36.38;12.48;;;-5.20;99.20;;;;;;5087706;28;20105;-73
2024/01/10 04:25:21;;;;;;;38.50;13.30;;;-5.30;99.30;;;;;;5086680;28;20027;-73
2024/01/10 04:27:51;;;;;;;38.92;13.02;;;-5.30;99.40;;;;;;5088784;28;20266;-73
2024/01/10 04:30:19;;;;;;;40.97;13.82;;;-5.30;99.40;;;;;;5084782;28;20486;-73
2024/01/10 04:32:45;;;;;;;37.35;11.55;;;-5.20;99.30;;;;;;5081621;28;20031;-73
2024/01/10 04:35:10;;;;;;;32.95;11.80;;;-5.20;99.30;;;;;;5086157;28;20364;-73
2024/01/10 04:37:36;;;;;;;37.28;12.98;;;-5.20;99.30;;;;;;5089252;28;20054;-73
2024/01/10 04:40:02;;;;;;;33.25;12.07;;;-5.30;99.40;;;;;;5087322;28;20032;-73
2024/01/10 04:42:27;;;;;;;35.60;13.13;;;-5.30;99.40;;;;;;5088061;28;20024;-73
2024/01/10 04:44:53;;;;;;;38.42;13.48;;;-5.30;99.40;;;;;;5087456;28;20684;-73
2024/01/10 04:47:19;;;;;;;30.80;13.50;;;-5.40;99.50;;;;;;5088221;28;20040;-73
2024/01/10 04:49:46;;;;;;;30.77;11.50;;;-5.30;99.50;;;;;;5084057;28;20622;-73
2024/01/10 04:52:12;;;;;;;35.15;11.30;;;-5.30;99.50;;;;;;5086900;28;20024;-73
2024/01/10 04:54:38;;;;;;;33.33;11.80;;;-5.30;99.60;;;;;;5087054;28;20055;-73
2024/01/10 04:57:04;;;;;;;34.25;12.20;;;-5.30;99.40;;;;;;5087170;28;20050;-73
2024/01/10 04:59:29;;;;;;;35.00;11.20;;;-5.30;99.50;;;;;;5081802;28;20304;-72
2024/01/10 05:01:55;;;;;;;33.40;11.13;;;-5.30;99.50;;;;;;5085476;28;20470;-73
2024/01/10 05:04:20;;;;;;;31.77;12.30;;;-5.20;99.40;;;;;;5086711;28;20024;-73
2024/01/10 05:06:46;;;;;;;31.38;11.93;;;-5.30;99.20;;;;;;5085881;28;20108;-73
2024/01/10 05:09:12;;;;;;;31.60;13.10;;;-5.30;99.40;;;;;;5089380;28;20478;-73
2024/01/10 05:11:38;;;;;;;30.85;12.48;;;-5.40;99.50;;;;;;5087245;28;20024;-73
2024/01/10 05:14:06;;;;;;;32.40;11.23;;;-5.40;99.50;;;;;;5087711;28;20039;-73
2024/01/10 05:16:32;;;;;;;34.13;12.52;;;-5.40;99.50;;;;;;5087055;28;20036;-73
2024/01/10 05:19:02;;;;;;;36.55;11.90;;;-5.50;99.60;;;;;;5084164;28;20127;-73
2024/01/10 05:21:31;;;;;;;28.92;10.52;;;-5.50;99.50;;;;;;5086769;28;20024;-73
2024/01/10 05:23:56;;;;;;;31.05;10.85;;;-5.40;99.40;;;;;;5086500;28;20051;-73
2024/01/10 05:26:22;;;;;;;37.30;12.02;;;-5.40;99.30;;;;;;5086271;28;20671;-73
2024/01/10 05:28:47;;;;;;;30.75;10.73;;;-5.40;99.40;;;;;;5087469;28;20082;-74
2024/01/10 05:31:15;;;;;;;28.65;11.50;;;-5.40;99.60;;;;;;5086317;28;20016;-73
2024/01/10 05:33:42;;;;;;;;;;;-5.50;99.30;;;;;;5080791;28;20040;-73
2024/01/10 05:36:11;;;;;;;31.73;11.13;;;-5.50;99.40;;;;;;5087325;28;20269;-73
2024/01/10 05:38:37;;;;;;;35.08;11.15;;;-5.50;99.60;;;;;;5090703;28;20039;-73
2024/01/10 05:41:02;;;;;;;30.15;10.57;;;-5.50;99.70;;;;;;5089740;28;20032;-73
2024/01/10 05:43:28;;;;;;;32.25;11.57;;;-5.50;99.50;;;;;;5087743;28;20032;-73
2024/01/10 05:45:53;;;;;;;34.97;12.80;;;-5.60;99.60;;;;;;5090359;28;20051;-73
2024/01/10 05:48:19;;;;;;;32.38;12.02;;;-5.60;99.50;;;;;;5091275;28;20081;-72
2024/01/10 05:50:45;;;;;;;33.75;12.13;;;-5.70;99.50;;;;;;5085577;28;20521;-73
2024/01/10 05:53:12;;;;;;;30.15;11.88;;;-5.70;99.60;;;;;;5089409;28;20032;-73
2024/01/10 05:55:38;;;;;;;40.20;12.02;;;-5.70;99.70;;;;;;5089704;28;20650;-74
2024/01/10 05:58:04;;;;;;;31.65;12.52;;;-5.70;99.70;;;;;;5082888;28;20031;-73
2024/01/10 06:00:30;;;;;;;30.25;11.93;;;-5.70;99.70;;;;;;5092575;28;20107;-73
2024/01/10 06:02:55;;;;;;;34.70;13.30;;;-5.80;99.70;;;;;;5087939;28;20131;-73
2024/01/10 06:05:21;;;;;;;31.58;11.68;;;-5.80;99.80;;;;;;5086552;28;20028;-72
2024/01/10 06:07:49;;;;;;;30.95;12.63;;;-5.80;99.80;;;;;;5090181;28;20024;-73
2024/01/10 06:10:15;;;;;;;32.95;11.27;;;-5.90;99.80;;;;;;5089192;28;20032;-73
2024/01/10 06:12:43;;;;;;;32.40;11.63;;;-5.90;99.70;;;;;;5091375;28;20115;-73
2024/01/10 06:15:09;;;;;;;36.15;12.60;;;-5.90;99.80;;;;;;5085048;28;20028;-73
2024/01/10 06:17:35;;;;;;;23.43;9.63;;;-5.90;99.90;;;;;;5083124;28;20123;-73
2024/01/10 06:20:01;;;;;;;34.38;11.90;;;-6.00;99.90;;;;;;5074334;28;20961;-73
2024/01/10 06:22:26;;;;;;;35.25;12.27;;;-6.00;99.90;;;;;;5082861;28;20036;-73
2024/01/10 06:24:52;;;;;;;38.25;12.07;;;-6.00;99.90;;;;;;5081916;28;20028;-73
2024/01/10 06:27:18;;;;;;;34.88;11.77;;;-6.00;99.90;;;;;;5081742;28;20055;-73
2024/01/10 06:29:46;;;;;;;39.60;12.18;;;-6.00;99.90;;;;;;5085780;28;20051;-73
2024/01/10 06:32:11;;;;;;;39.25;12.60;;;-6.10;99.90;;;;;;5082110;28;20482;-73
2024/01/10 06:34:37;;;;;;;28.80;11.98;;;-6.10;99.90;;;;;;5084130;28;20147;-73
2024/01/10 06:37:03;;;;;;;34.00;11.63;;;-6.10;99.90;;;;;;5081360;28;20046;-73
2024/01/10 06:39:29;;;;;;;35.60;12.15;;;-6.00;99.90;;;;;;5080857;28;20664;-73
2024/01/10 06:41:55;;;;;;;32.63;11.65;;;-6.00;99.90;;;;;;5081538;28;20067;-72
2024/01/10 06:44:21;;;;;;;34.80;12.27;;;-6.00;99.90;;;;;;5081666;28;20067;-73
2024/01/10 06:46:46;;;;;;;34.75;12.35;;;-6.00;99.90;;;;;;5079538;22;20778;-73
2024/01/10 06:49:12;;;;;;;38.15;12.88;;;-6.00;99.90;;;;;;5064050;28;20137;-73
2024/01/10 06:51:38;;;;;;;30.15;11.13;;;-6.00;99.90;;;;;;5064869;28;20020;-73
2024/01/10 06:54:04;;;;;;;33.70;12.57;;;-5.90;99.90;;;;;;5055482;28;20637;-73
2024/01/10 06:56:30;;;;;;;34.58;12.52;;;-5.90;99.90;;;;;;5060784;28;20074;-73
2024/01/10 06:58:59;;;;;;;40.03;13.05;;;-5.90;99.90;;;;;;5062683;28;20020;-73
2024/01/10 07:01:25;;;;;;;39.40;12.55;;;-6.00;99.90;;;;;;5063871;28;20039;-73
2024/01/10 07:03:52;;;;;;;32.72;12.30;;;-6.00;99.90;;;;;;5067937;28;20251;-73
2024/01/10 07:06:17;;;;;;;37.13;12.05;;;-6.00;99.90;;;;;;5064706;28;20023;-74
2024/01/10 07:08:44;;;;;;;35.92;12.35;;;-6.00;99.90;;;;;;5065413;28;20021;-73
2024/01/10 07:11:12;;;;;;;37.30;12.95;;;-6.00;99.90;;;;;;5066047;28;20020;-74
2024/01/10 07:13:38;;;;;;;40.47;12.48;;;-5.90;99.90;;;;;;5066724;28;20093;-73
2024/01/10 07:16:04;;;;;;;38.75;12.70;;;-5.90;99.90;;;;;;5066201;28;20713;-74
2024/01/10 07:18:30;;;;;;;37.20;13.05;;;-5.90;99.90;;;;;;5066118;28;20040;-74
2024/01/10 07:20:58;;;;;;;38.27;12.13;;;-5.90;99.90;;;;;;5065835;28;20517;-74
2024/01/10 07:23:24;;;;;;;37.90;12.30;;;-5.90;99.90;;;;;;5068898;28;20051;-74
2024/01/10 07:25:49;;;;;;;31.15;12.27;;;-5.90;99.90;;;;;;5066186;28;20016;-74
2024/01/10 07:28:15;;;;;;;36.13;13.15;;;-5.90;99.90;;;;;;5069532;28;20025;-74
2024/01/10 07:30:41;;;;;;;40.58;13.27;;;-5.90;99.90;;;;;;5066281;28;20029;-73
2024/01/10 07:33:07;;;;;;;40.60;13.88;;;-5.90;99.90;;;;;;5059971;28;20457;-73
2024/01/10 07:35:33;;;;;;;34.42;12.43;;;-6.00;99.90;;;;;;5061915;28;20033;-76
2024/01/10 07:37:59;;;;;;;34.55;13.27;;;-6.00;99.90;;;;;;5061471;28;20513;-74
2024/01/10 07:40:27;;;;;;;42.63;12.57;;;-5.90;99.90;;;;;;5058526;28;20029;-75
2024/01/10 07:42:52;;;;;;;37.97;11.82;;;-5.90;99.90;;;;;;5058123;28;20148;-74
2024/01/10 07:45:18;;;;;;;41.95;13.82;;;-5.90;99.90;;;;;;5054534;28;20127;-74
2024/01/10 07:47:46;;;;;;;38.70;12.73;;;-5.90;99.90;;;;;;5046908;28;20115;-74
2024/01/10 07:50:14;;;;;;;32.17;12.10;;;-5.90;99.90;;;;;;5056804;28;20048;-74
2024/01/10 07:52:42;;;;;;;37.95;12.77;;;-5.80;99.90;;;;;;5058174;28;20433;-74
2024/01/10 07:55:08;;;;;;;29.85;11.85;;;-5.80;99.90;;;;;;5058809;28;20044;-74
2024/01/10 07:57:37;;;;;;;35.30;12.52;;;-5.80;99.90;;;;;;5057960;28;20109;-74
2024/01/10 08:00:10;;;;;;;32.47;12.10;;;-5.80;99.90;;;;;;5053573;28;20059;-75
2024/01/10 08:02:36;;;;;;;35.08;12.45;;;-5.80;99.90;;;;;;5055841;28;20060;-74
2024/01/10 08:05:12;;;;;;;34.80;11.95;;;-5.80;99.90;;;;;;5058412;28;20385;-74
2024/01/10 08:07:38;;;;;;;37.42;12.63;;;-5.80;99.90;;;;;;5056311;28;20035;-74
2024/01/10 08:10:11;;;;;;;31.65;12.27;;;-5.80;99.90;;;;;;5056907;28;20538;-74
2024/01/10 08:12:38;;;;;;;38.35;12.32;;;-5.80;99.90;;;;;;5057261;28;20032;-74
2024/01/10 08:15:06;;;;;;;35.28;13.07;;;-5.80;99.90;;;;;;5056344;28;20033;-74
2024/01/10 08:17:37;;;;;;;31.88;13.43;;;-5.70;99.90;;;;;;5056077;28;20048;-74
2024/01/10 08:20:06;;;;;;;38.10;13.02;;;-5.80;99.90;;;;;;5057157;28;20468;-74
2024/01/10 08:22:32;;;;;;;35.13;12.43;;;-5.70;99.90;;;;;;5056219;28;20039;-74
2024/01/10 08:24:58;;;;;;;38.38;13.18;;;-5.80;99.90;;;;;;5056536;28;20024;-74
2024/01/10 08:27:23;;;;;;;40.97;14.18;;;-5.80;99.90;;;;;;5056184;28;20047;-74
2024/01/10 08:29:49;;;;;;;42.28;12.95;;;-5.70;99.90;;;;;;5056644;28;20398;-74
2024/01/10 08:32:15;;;;;;;37.47;13.30;;;-5.70;99.90;;;;;;5054337;28;20268;-74
2024/01/10 08:34:40;;;;;;;38.47;13.27;;;-5.60;99.90;;;;;;5055027;28;20238;-74
2024/01/10 08:37:06;;;;;;;40.58;14.32;;;-5.70;99.90;;;;;;5055247;28;20112;-73
2024/01/10 08:39:32;;;;;;;42.22;13.05;;;-5.60;99.90;;;;;;5054804;28;20024;-74
2024/01/10 08:41:58;;;;;;;45.67;13.73;;;-5.70;99.90;;;;;;5055385;28;20040;-74
2024/01/10 08:44:24;;;;;;;42.30;14.68;;;-5.60;99.90;;;;;;5055745;28;20109;-74
2024/01/10 08:46:52;;;;;;;43.05;14.35;;;-5.70;99.90;;;;;;5055165;28;20033;-74
2024/01/10 08:49:19;;;;;;;32.50;12.27;;;-5.70;99.90;;;;;;5055791;28;20039;-74
2024/01/10 08:51:46;;;;;;;36.55;13.60;;;-5.60;99.90;;;;;;5055940;28;20541;-74
2024/01/10 08:54:16;;;;;;;36.83;14.38;;;-5.60;99.90;;;;;;5055482;28;20079;-74
2024/01/10 08:56:43;;;;;;;44.03;14.05;;;-5.40;99.90;;;;;;5054955;28;20082;-74
2024/01/10 08:59:11;;;;;;;45.60;15.25;;;-5.40;99.90;;;;;;5053147;28;20491;-75
2024/01/10 09:01:38;;;;;;;37.42;13.82;;;-5.30;99.90;;;;;;5054043;28;20040;-74
2024/01/10 09:04:04;;;;;;;;;;;-5.30;99.90;;;;;;5055813;28;20036;-73
2024/01/10 09:06:33;;;;;;;35.90;11.57;;;-5.20;99.90;;;;;;5053864;28;19908;-74
2024/01/10 09:08:59;;;;;;;37.35;13.82;;;-5.20;99.90;;;;;;5056850;28;20047;-74
2024/01/10 09:11:24;;;;;;;39.45;14.63;;;-5.10;99.90;;;;;;5053065;28;20060;-74
2024/01/10 09:13:53;;;;;;;42.65;14.80;;;-5.20;99.90;;;;;;5055600;28;20112;-74
2024/01/10 09:16:19;;;;;;;41.42;15.63;;;-5.10;99.90;;;;;;5055913;28;20135;-74
2024/01/10 09:18:45;;;;;;;43.13;15.55;;;-5.00;99.90;;;;;;5054654;28;20058;-74
2024/01/10 09:21:12;;;;;;;41.38;14.80;;;-5.00;99.90;;;;;;5055341;28;20041;-74
2024/01/10 09:23:40;;;;;;;40.88;16.00;;;-4.90;99.90;;;;;;5054649;28;20028;-74
2024/01/10 09:26:08;;;;;;;41.35;15.73;;;-4.80;99.90;;;;;;5054559;28;20483;-74
2024/01/10 09:28:34;;;;;;;48.70;15.88;;;-4.80;99.90;;;;;;5053796;28;20331;-75
2024/01/10 09:30:59;;;;;;;45.42;16.10;;;-4.80;99.90;;;;;;5052571;28;20063;-74
2024/01/10 09:33:25;;;;;;;43.92;15.88;;;-4.70;99.90;;;;;;5054327;28;20051;-74
2024/01/10 09:35:50;;;;;;;44.67;15.90;;;-4.70;99.90;;;;;;5053169;28;20032;-75
2024/01/10 09:38:16;;;;;;;51.70;15.93;;;-4.60;99.90;;;;;;5054201;28;20503;-75
2024/01/10 09:40:43;;;;;;;45.90;15.85;;;-4.60;99.90;;;;;;5054545;28;20451;-75
2024/01/10 09:43:09;;;;;;;46.45;16.35;;;-4.50;99.90;;;;;;5053837;28;20587;-75
2024/01/10 09:45:46;;;;;;;40.72;15.90;;;-4.50;99.90;;;;;;5056069;28;20068;-74
2024/01/10 09:48:13;;;;;;;45.38;16.85;;;-4.50;99.90;;;;;;5052879;28;20529;-74
2024/01/10 09:50:39;;;;;;;;;;;-4.40;99.80;;;;;;5054656;28;20036;-74
2024/01/10 09:53:06;;;;;;;45.15;15.27;;;-4.30;99.70;;;;;;5053449;28;20259;-75
2024/01/10 09:55:35;;;;;;;43.65;15.77;;;-4.30;99.60;;;;;;5052309;28;20108;-75
2024/01/10 09:58:08;;;;;;;40.95;15.70;;;-4.20;99.60;;;;;;5052847;28;20100;-75
2024/01/10 10:00:35;;;;;;;46.67;15.45;;;-4.10;99.30;;;;;;5056045;28;20869;-75
2024/01/10 10:03:04;;;;;;;49.70;16.33;;;-4.00;99.20;;;;;;5055128;28;20483;-74
2024/01/10 10:05:30;;;;;;;48.42;16.33;;;-4.00;99.20;;;;;;5055335;28;20095;-75
2024/01/10 10:07:58;;;;;;;46.97;17.60;;;-3.90;99.10;;;;;;5055896;28;20107;-75
2024/01/10 10:10:24;;;;;;;50.15;16.88;;;-3.80;98.90;;;;;;5056387;28;20446;-75
2024/01/10 10:12:54;;;;;;;52.42;16.70;;;-3.80;98.90;;;;;;5052891;28;20558;-75
2024/01/10 10:15:26;;;;;;;44.90;16.77;;;-3.80;98.80;;;;;;5053964;28;20029;-75
2024/01/10 10:17:53;;;;;;;42.83;16.17;;;-3.70;98.90;;;;;;5054887;28;20121;-75
2024/01/10 10:20:22;;;;;;;48.20;17.15;;;-3.60;98.90;;;;;;5053859;28;20108;-75
2024/01/10 10:23:03;;;;;;;53.97;18.05;;;-3.40;98.90;;;;;;5054023;28;20036;-75
2024/01/10 10:25:34;;;;;;;53.85;17.33;;;-3.30;98.60;;;;;;5058336;28;20033;-74
2024/01/10 10:28:03;;;;;;;50.63;18.15;;;-3.10;98.90;;;;;;5056100;28;20429;-75
2024/01/10 10:30:30;;;;;;;48.03;17.23;;;-2.80;98.90;;;;;;5059483;28;20025;-75
2024/01/10 10:32:55;;;;;;;50.88;17.52;;;-2.60;98.60;;;;;;5057299;28;21342;-75
2024/01/10 10:35:22;;;;;;;47.63;19.48;;;-2.50;98.40;;;;;;5055322;28;20228;-75
2024/01/10 10:37:52;;;;;;;51.58;19.60;;;-2.40;98.10;;;;;;5057763;28;20033;-75
2024/01/10 10:40:19;;;;;;;48.70;17.08;;;-2.30;98.30;;;;;;5058611;28;20492;-75
2024/01/10 10:42:48;;;;;;;49.50;16.63;;;-2.30;98.10;;;;;;5057545;28;20040;-75
2024/01/10 10:45:18;;;;;;;41.83;16.98;;;-2.10;98.00;;;;;;5058724;28;20025;-75
2024/01/10 10:47:49;;;;;;;51.60;18.13;;;-1.90;98.50;;;;;;5056754;28;20024;-75
2024/01/10 10:50:24;;;;;;;44.75;16.77;;;-1.70;98.40;;;;;;5055424;28;20133;-75
2024/01/10 10:52:51;;;;;;;50.55;17.52;;;-1.40;98.50;;;;;;5058628;28;20028;-75
2024/01/10 10:55:18;;;;;;;51.45;20.38;;;-1.10;98.20;;;;;;5062873;28;20040;-75
2024/01/10 10:57:51;;;;;;;45.25;16.98;;;-0.90;97.90;;;;;;5053486;28;20020;-76
2024/01/10 11:00:21;;;;;;;46.78;18.05;;;-0.60;97.50;;;;;;5060574;28;20102;-76
2024/01/10 11:02:47;;;;;;;47.25;17.83;;;-0.40;96.90;;;;;;5059330;28;20619;-76
2024/01/10 11:05:13;;;;;;;46.38;17.95;;;-0.10;97.30;;;;;;5060485;28;20155;-76
2024/01/10 11:07:46;;;;;;;43.10;16.75;;;0.30;97.30;;;;;;5063324;28;20115;-75
2024/01/10 11:10:22;;;;;;;44.88;16.77;;;0.50;96.60;;;;;;5066976;28;20106;-76
2024/01/10 11:13:00;;;;;;;53.35;20.63;;;0.80;96.90;;;;;;5062128;28;20029;-76
2024/01/10 11:15:50;;;;;;;49.72;17.33;;;1.10;96.90;;;;;;5068894;28;20722;-75
2024/01/10 11:18:44;;;;;;;49.10;17.88;;;1.30;96.00;;;;;;5067861;28;20090;-76
2024/01/10 11:21:20;;;;;;;47.05;17.75;;;1.60;96.00;;;;;;5069640;28;20038;-76
2024/01/10 11:23:57;;;;;;;49.10;18.70;;;2.00;95.80;;;;;;5067426;28;20033;-76
2024/01/10 11:26:23;;;;;;;41.75;18.27;;;2.20;94.80;;;;;;5068409;28;20107;-76
2024/01/10 11:28:52;;;;;;;42.30;18.73;;;2.60;95.60;;;;;;5059271;28;20107;-75
2024/01/10 11:31:30;;;;;;;48.38;18.77;;;3.00;95.20;;;;;;5058202;28;20027;-76
2024/01/10 11:33:57;;;;;;;43.78;18.25;;;3.40;94.60;;;;;;5060607;28;20033;-76
2024/01/10 11:36:26;;;;;;;42.30;17.83;;;3.60;93.80;;;;;;5060284;28;20680;-75
2024/01/10 11:38:53;;;;;;;46.22;18.02;;;3.90;93.60;;;;;;5063186;28;20111;-75
2024/01/10 11:41:28;;;;;;;43.00;18.67;;;4.20;93.40;;;;;;5064830;28;20486;-76
2024/01/10 11:46:42;;;;;;;44.22;18.35;;;4.60;91.70;;;;;;5065019;28;20082;-76
2024/01/10 11:49:11;;;;;;;48.53;17.88;;;4.70;91.20;;;;;;5066812;28;20086;-76
2024/01/10 11:51:37;;;;;;;44.60;17.73;;;4.70;91.40;;;;;;5061938;28;20044;-76
2024/01/10 11:54:03;;;;;;;43.10;16.88;;;4.90;90.80;;;;;;5062610;28;20048;-76
2024/01/10 11:56:39;;;;;;;40.70;17.05;;;4.90;90.00;;;;;;5060767;28;20024;-76
2024/01/10 11:59:13;;;;;;;44.95;17.63;;;4.80;88.80;;;;;;5063349;28;20020;-76
2024/01/10 12:01:44;;;;;;;38.42;16.98;;;4.70;88.20;;;;;;5055942;28;20128;-76
2024/01/10 12:04:09;;;;;;;38.38;16.77;;;4.40;87.70;;;;;;5054691;28;20025;-76
2024/01/10 12:06:36;;;;;;;41.33;16.67;;;4.20;88.30;;;;;;5058857;28;20529;-76
2024/01/10 12:09:07;;;;;;;43.92;16.52;;;4.00;88.60;;;;;;5061129;28;20494;-76
2024/01/10 12:11:34;;;;;;;43.83;16.65;;;3.60;88.20;;;;;;5062254;28;20352;-76
2024/01/10 12:14:03;;;;;;;38.33;15.30;;;3.50;89.00;;;;;;5060497;28;20052;-76
2024/01/10 12:16:29;;;;;;;49.80;17.17;;;3.40;89.30;;;;;;5060232;28;20581;-76
2024/01/10 12:18:55;;;;;;;41.72;16.58;;;3.30;88.80;;;;;;5062075;28;20099;-76
2024/01/10 12:21:21;;;;;;;44.25;16.52;;;3.10;88.80;;;;;;5053727;28;20041;-75
2024/01/10 12:23:48;;;;;;;44.83;16.80;;;3.00;89.10;;;;;;5060780;28;20419;-76
2024/01/10 12:26:14;;;;;;;40.28;18.08;;;2.80;88.70;;;;;;5057412;28;20025;-76
2024/01/10 12:28:40;;;;;;;40.97;17.10;;;2.60;88.20;;;;;;5055053;28;20029;-77
2024/01/10 12:31:09;;;;;;;39.53;18.27;;;2.50;88.90;;;;;;5051714;28;20085;-76
2024/01/10 12:33:39;;;;;;;49.05;17.85;;;2.30;89.10;;;;;;5057937;28;20503;-76
2024/01/10 12:36:08;;;;;;;43.08;16.88;;;2.10;89.00;;;;;;5056794;28;20047;-76